sensor_id;sensor_type;location;lat;lon;timestamp;P1;durP1;ratioP1;P2;durP2;ratioP2
76903;SDS011;65865;51.698;-0.292;2023-06-14T00:01:43;2.78;;;1.40;;
76903;SDS011;65865;51.698;-0.292;2023-06-14T00:04:10;2.78;;;1.38;;
76903;SDS011;65865;51.698;-0.292;2023-06-14T00:06:36;3.03;;;1.42;;
76903;SDS011;65865;51.698;-0.292;2023-06-14T00:09:03;2.97;;;1.30;;
76903;SDS011;65865;51.698;-0.292;2023-06-14T00:11:30;3.85;;;1.75;;
76903;SDS011;65865;51.698;-0.292;2023-06-14T00:13:56;3.33;;;1.30;;
76903;SDS011;65865;51.698;-0.292;2023-06-14T00:16:22;3.03;;;1.05;;
76903;SDS011;65865;51.698;-0.292;2023-06-14T00:18:49;4.43;;;1.48;;
76903;SDS011;65865;51.698;-0.292;2023-06-14T00:21:20;3.22;;;1.20;;
76903;SDS011;65865;51.698;-0.292;2023-06-14T00:23:46;3.40;;;1.48;;
76903;SDS011;65865;51.698;-0.292;2023-06-14T00:26:12;3.70;;;1.35;;
76903;SDS011;65865;51.698;-0.292;2023-06-14T00:28:39;2.90;;;1.15;;
76903;SDS011;65865;51.698;-0.292;2023-06-14T00:31:06;3.35;;;1.45;;
76903;SDS011;65865;51.698;-0.292;2023-06-14T00:33:32;3.03;;;1.35;;
76903;SDS011;65865;51.698;-0.292;2023-06-14T00:35:58;3.60;;;1.58;;
76903;SDS011;65865;51.698;-0.292;2023-06-14T00:38:24;2.60;;;1.23;;
76903;SDS011;65865;51.698;-0.292;2023-06-14T00:40:50;2.85;;;1.30;;
76903;SDS011;65865;51.698;-0.292;2023-06-14T00:43:16;3.10;;;1.20;;
76903;SDS011;65865;51.698;-0.292;2023-06-14T00:45:42;2.75;;;1.15;;
76903;SDS011;65865;51.698;-0.292;2023-06-14T00:48:09;2.47;;;1.20;;
76903;SDS011;65865;51.698;-0.292;2023-06-14T00:50:36;2.95;;;1.40;;
76903;SDS011;65865;51.698;-0.292;2023-06-14T00:53:03;1.95;;;0.93;;
76903;SDS011;65865;51.698;-0.292;2023-06-14T00:55:29;2.80;;;1.20;;
76903;SDS011;65865;51.698;-0.292;2023-06-14T00:57:58;3.00;;;1.23;;
76903;SDS011;65865;51.698;-0.292;2023-06-14T01:00:24;3.50;;;1.30;;
76903;SDS011;65865;51.698;-0.292;2023-06-14T01:02:50;2.42;;;1.10;;
76903;SDS011;65865;51.698;-0.292;2023-06-14T01:05:16;2.60;;;1.10;;
76903;SDS011;65865;51.698;-0.292;2023-06-14T01:07:46;2.30;;;1.00;;
76903;SDS011;65865;51.698;-0.292;2023-06-14T01:10:26;2.22;;;1.00;;
76903;SDS011;65865;51.698;-0.292;2023-06-14T01:15:23;2.53;;;1.00;;
76903;SDS011;65865;51.698;-0.292;2023-06-14T01:17:50;2.30;;;1.08;;
76903;SDS011;65865;51.698;-0.292;2023-06-14T01:20:19;3.15;;;1.20;;
76903;SDS011;65865;51.698;-0.292;2023-06-14T01:22:55;2.55;;;0.98;;
76903;SDS011;65865;51.698;-0.292;2023-06-14T01:25:21;2.45;;;1.10;;
76903;SDS011;65865;51.698;-0.292;2023-06-14T01:27:58;2.45;;;1.00;;
76903;SDS011;65865;51.698;-0.292;2023-06-14T01:30:26;2.28;;;1.08;;
76903;SDS011;65865;51.698;-0.292;2023-06-14T01:32:53;2.35;;;1.10;;
76903;SDS011;65865;51.698;-0.292;2023-06-14T01:35:20;2.55;;;1.27;;
76903;SDS011;65865;51.698;-0.292;2023-06-14T01:37:47;2.80;;;1.30;;
76903;SDS011;65865;51.698;-0.292;2023-06-14T01:40:13;3.38;;;1.20;;
76903;SDS011;65865;51.698;-0.292;2023-06-14T01:42:40;3.22;;;1.50;;
76903;SDS011;65865;51.698;-0.292;2023-06-14T01:45:06;3.00;;;1.30;;
76903;SDS011;65865;51.698;-0.292;2023-06-14T01:47:33;2.67;;;1.05;;
76903;SDS011;65865;51.698;-0.292;2023-06-14T01:50:01;2.85;;;1.35;;
76903;SDS011;65865;51.698;-0.292;2023-06-14T01:52:27;3.30;;;1.30;;
76903;SDS011;65865;51.698;-0.292;2023-06-14T01:54:53;2.78;;;1.20;;
76903;SDS011;65865;51.698;-0.292;2023-06-14T01:57:19;2.78;;;1.38;;
76903;SDS011;65865;51.698;-0.292;2023-06-14T01:59:46;3.70;;;1.10;;
76903;SDS011;65865;51.698;-0.292;2023-06-14T02:02:13;2.97;;;0.98;;
76903;SDS011;65865;51.698;-0.292;2023-06-14T02:04:39;3.35;;;1.08;;
76903;SDS011;65865;51.698;-0.292;2023-06-14T02:07:05;2.60;;;1.10;;
76903;SDS011;65865;51.698;-0.292;2023-06-14T02:09:32;2.95;;;1.10;;
76903;SDS011;65865;51.698;-0.292;2023-06-14T02:11:59;3.03;;;1.17;;
76903;SDS011;65865;51.698;-0.292;2023-06-14T02:14:25;3.03;;;1.27;;
76903;SDS011;65865;51.698;-0.292;2023-06-14T02:16:51;2.90;;;1.25;;
76903;SDS011;65865;51.698;-0.292;2023-06-14T02:19:18;2.92;;;1.23;;
76903;SDS011;65865;51.698;-0.292;2023-06-14T02:21:44;3.47;;;1.38;;
76903;SDS011;65865;51.698;-0.292;2023-06-14T02:24:11;2.25;;;1.00;;
76903;SDS011;65865;51.698;-0.292;2023-06-14T02:26:37;3.13;;;1.70;;
76903;SDS011;65865;51.698;-0.292;2023-06-14T02:29:03;3.20;;;1.20;;
76903;SDS011;65865;51.698;-0.292;2023-06-14T02:31:30;2.03;;;0.82;;
76903;SDS011;65865;51.698;-0.292;2023-06-14T02:33:56;3.97;;;1.30;;
76903;SDS011;65865;51.698;-0.292;2023-06-14T02:36:22;2.63;;;1.10;;
76903;SDS011;65865;51.698;-0.292;2023-06-14T02:38:50;2.83;;;1.05;;
76903;SDS011;65865;51.698;-0.292;2023-06-14T02:41:16;2.80;;;1.13;;
76903;SDS011;65865;51.698;-0.292;2023-06-14T02:43:42;2.63;;;1.10;;
76903;SDS011;65865;51.698;-0.292;2023-06-14T02:46:08;1.83;;;0.82;;
76903;SDS011;65865;51.698;-0.292;2023-06-14T02:48:35;2.25;;;1.00;;
76903;SDS011;65865;51.698;-0.292;2023-06-14T02:51:01;2.28;;;0.85;;
76903;SDS011;65865;51.698;-0.292;2023-06-14T02:53:27;3.20;;;1.10;;
76903;SDS011;65865;51.698;-0.292;2023-06-14T02:55:53;2.83;;;1.20;;
76903;SDS011;65865;51.698;-0.292;2023-06-14T02:58:23;3.88;;;1.05;;
76903;SDS011;65865;51.698;-0.292;2023-06-14T03:00:50;2.55;;;1.10;;
76903;SDS011;65865;51.698;-0.292;2023-06-14T03:03:18;3.05;;;0.82;;
76903;SDS011;65865;51.698;-0.292;2023-06-14T03:05:46;3.30;;;1.05;;
76903;SDS011;65865;51.698;-0.292;2023-06-14T03:08:14;3.28;;;0.95;;
76903;SDS011;65865;51.698;-0.292;2023-06-14T03:10:48;2.35;;;0.90;;
76903;SDS011;65865;51.698;-0.292;2023-06-14T03:13:14;2.85;;;1.00;;
76903;SDS011;65865;51.698;-0.292;2023-06-14T03:15:43;2.80;;;1.00;;
76903;SDS011;65865;51.698;-0.292;2023-06-14T03:18:10;2.35;;;1.00;;
76903;SDS011;65865;51.698;-0.292;2023-06-14T03:20:37;2.55;;;0.95;;
76903;SDS011;65865;51.698;-0.292;2023-06-14T03:23:03;2.72;;;1.27;;
76903;SDS011;65865;51.698;-0.292;2023-06-14T03:25:30;2.10;;;0.90;;
76903;SDS011;65865;51.698;-0.292;2023-06-14T03:27:56;3.00;;;1.10;;
76903;SDS011;65865;51.698;-0.292;2023-06-14T03:30:22;3.33;;;1.00;;
76903;SDS011;65865;51.698;-0.292;2023-06-14T03:32:48;2.90;;;0.90;;
76903;SDS011;65865;51.698;-0.292;2023-06-14T03:35:17;2.65;;;1.02;;
76903;SDS011;65865;51.698;-0.292;2023-06-14T03:37:44;2.80;;;1.20;;
76903;SDS011;65865;51.698;-0.292;2023-06-14T03:40:11;2.70;;;0.98;;
76903;SDS011;65865;51.698;-0.292;2023-06-14T03:42:37;3.15;;;0.80;;
76903;SDS011;65865;51.698;-0.292;2023-06-14T03:45:03;3.05;;;1.15;;
76903;SDS011;65865;51.698;-0.292;2023-06-14T03:47:30;2.22;;;0.80;;
76903;SDS011;65865;51.698;-0.292;2023-06-14T03:49:56;3.40;;;1.17;;
76903;SDS011;65865;51.698;-0.292;2023-06-14T03:52:22;2.53;;;0.77;;
76903;SDS011;65865;51.698;-0.292;2023-06-14T03:54:48;3.50;;;1.13;;
76903;SDS011;65865;51.698;-0.292;2023-06-14T03:57:15;2.40;;;1.10;;
76903;SDS011;65865;51.698;-0.292;2023-06-14T03:59:41;1.98;;;0.80;;
76903;SDS011;65865;51.698;-0.292;2023-06-14T04:02:07;3.40;;;1.05;;
76903;SDS011;65865;51.698;-0.292;2023-06-14T04:04:34;2.63;;;1.00;;
76903;SDS011;65865;51.698;-0.292;2023-06-14T04:07:00;2.40;;;0.98;;
76903;SDS011;65865;51.698;-0.292;2023-06-14T04:09:28;3.03;;;1.02;;
76903;SDS011;65865;51.698;-0.292;2023-06-14T04:11:55;2.97;;;1.10;;
76903;SDS011;65865;51.698;-0.292;2023-06-14T04:14:21;3.45;;;1.02;;
76903;SDS011;65865;51.698;-0.292;2023-06-14T04:16:48;2.20;;;0.93;;
76903;SDS011;65865;51.698;-0.292;2023-06-14T04:19:14;3.08;;;1.10;;
76903;SDS011;65865;51.698;-0.292;2023-06-14T04:21:40;3.55;;;1.15;;
76903;SDS011;65865;51.698;-0.292;2023-06-14T04:24:06;2.22;;;1.10;;
76903;SDS011;65865;51.698;-0.292;2023-06-14T04:26:38;2.85;;;0.90;;
76903;SDS011;65865;51.698;-0.292;2023-06-14T04:29:04;2.60;;;0.98;;
76903;SDS011;65865;51.698;-0.292;2023-06-14T04:31:34;4.53;;;1.02;;
76903;SDS011;65865;51.698;-0.292;2023-06-14T04:34:03;3.55;;;1.00;;
76903;SDS011;65865;51.698;-0.292;2023-06-14T04:36:31;2.92;;;1.17;;
76903;SDS011;65865;51.698;-0.292;2023-06-14T04:39:00;2.75;;;1.20;;
76903;SDS011;65865;51.698;-0.292;2023-06-14T04:41:28;3.80;;;1.13;;
76903;SDS011;65865;51.698;-0.292;2023-06-14T04:43:59;3.20;;;1.08;;
76903;SDS011;65865;51.698;-0.292;2023-06-14T04:46:27;4.28;;;1.23;;
76903;SDS011;65865;51.698;-0.292;2023-06-14T04:48:54;2.28;;;1.00;;
76903;SDS011;65865;51.698;-0.292;2023-06-14T04:51:21;2.85;;;1.15;;
76903;SDS011;65865;51.698;-0.292;2023-06-14T04:53:54;4.93;;;1.05;;
76903;SDS011;65865;51.698;-0.292;2023-06-14T04:56:21;3.00;;;1.00;;
76903;SDS011;65865;51.698;-0.292;2023-06-14T04:58:48;3.40;;;1.33;;
76903;SDS011;65865;51.698;-0.292;2023-06-14T05:01:14;2.97;;;1.10;;
76903;SDS011;65865;51.698;-0.292;2023-06-14T05:03:40;2.83;;;1.38;;
76903;SDS011;65865;51.698;-0.292;2023-06-14T05:06:08;3.05;;;1.40;;
76903;SDS011;65865;51.698;-0.292;2023-06-14T05:08:34;4.00;;;1.30;;
76903;SDS011;65865;51.698;-0.292;2023-06-14T05:11:00;4.25;;;1.40;;
76903;SDS011;65865;51.698;-0.292;2023-06-14T05:13:26;3.05;;;1.30;;
76903;SDS011;65865;51.698;-0.292;2023-06-14T05:15:53;2.83;;;1.20;;
76903;SDS011;65865;51.698;-0.292;2023-06-14T05:18:19;4.22;;;1.20;;
76903;SDS011;65865;51.698;-0.292;2023-06-14T05:20:45;4.55;;;1.63;;
76903;SDS011;65865;51.698;-0.292;2023-06-14T05:23:11;3.45;;;1.27;;
76903;SDS011;65865;51.698;-0.292;2023-06-14T05:25:44;3.42;;;1.27;;
76903;SDS011;65865;51.698;-0.292;2023-06-14T05:28:10;3.45;;;1.40;;
76903;SDS011;65865;51.698;-0.292;2023-06-14T05:30:37;4.28;;;1.25;;
76903;SDS011;65865;51.698;-0.292;2023-06-14T05:33:03;2.35;;;1.10;;
76903;SDS011;65865;51.698;-0.292;2023-06-14T05:35:29;3.22;;;1.30;;
76903;SDS011;65865;51.698;-0.292;2023-06-14T05:37:55;5.03;;;1.73;;
76903;SDS011;65865;51.698;-0.292;2023-06-14T05:40:21;3.00;;;1.20;;
76903;SDS011;65865;51.698;-0.292;2023-06-14T05:42:47;4.32;;;1.20;;
76903;SDS011;65865;51.698;-0.292;2023-06-14T05:45:13;2.80;;;1.23;;
76903;SDS011;65865;51.698;-0.292;2023-06-14T05:47:41;3.45;;;0.95;;
76903;SDS011;65865;51.698;-0.292;2023-06-14T05:50:07;3.83;;;1.45;;
76903;SDS011;65865;51.698;-0.292;2023-06-14T05:52:34;2.80;;;1.20;;
76903;SDS011;65865;51.698;-0.292;2023-06-14T05:55:01;5.35;;;1.02;;
76903;SDS011;65865;51.698;-0.292;2023-06-14T05:57:28;3.90;;;1.42;;
76903;SDS011;65865;51.698;-0.292;2023-06-14T05:59:54;2.67;;;1.20;;
76903;SDS011;65865;51.698;-0.292;2023-06-14T06:02:20;3.22;;;1.30;;
76903;SDS011;65865;51.698;-0.292;2023-06-14T06:04:46;3.05;;;1.30;;
76903;SDS011;65865;51.698;-0.292;2023-06-14T06:07:12;3.25;;;1.17;;
76903;SDS011;65865;51.698;-0.292;2023-06-14T06:09:38;4.95;;;1.50;;
76903;SDS011;65865;51.698;-0.292;2023-06-14T06:12:06;4.43;;;1.50;;
76903;SDS011;65865;51.698;-0.292;2023-06-14T06:14:32;3.63;;;1.13;;
76903;SDS011;65865;51.698;-0.292;2023-06-14T06:16:58;4.70;;;1.33;;
76903;SDS011;65865;51.698;-0.292;2023-06-14T06:19:24;5.43;;;1.70;;
76903;SDS011;65865;51.698;-0.292;2023-06-14T06:21:50;4.97;;;1.40;;
76903;SDS011;65865;51.698;-0.292;2023-06-14T06:24:16;3.25;;;1.08;;
76903;SDS011;65865;51.698;-0.292;2023-06-14T06:26:42;5.00;;;1.30;;
76903;SDS011;65865;51.698;-0.292;2023-06-14T06:29:08;4.13;;;1.13;;
76903;SDS011;65865;51.698;-0.292;2023-06-14T06:31:35;4.10;;;1.25;;
76903;SDS011;65865;51.698;-0.292;2023-06-14T06:34:01;3.80;;;1.45;;
76903;SDS011;65865;51.698;-0.292;2023-06-14T06:36:27;3.05;;;0.93;;
76903;SDS011;65865;51.698;-0.292;2023-06-14T06:38:53;3.38;;;1.40;;
76903;SDS011;65865;51.698;-0.292;2023-06-14T06:41:19;2.75;;;1.20;;
76903;SDS011;65865;51.698;-0.292;2023-06-14T06:43:45;3.35;;;1.17;;
76903;SDS011;65865;51.698;-0.292;2023-06-14T06:46:11;5.15;;;1.40;;
76903;SDS011;65865;51.698;-0.292;2023-06-14T06:48:38;3.75;;;1.40;;
76903;SDS011;65865;51.698;-0.292;2023-06-14T06:51:04;5.47;;;1.45;;
76903;SDS011;65865;51.698;-0.292;2023-06-14T06:53:30;5.85;;;1.70;;
76903;SDS011;65865;51.698;-0.292;2023-06-14T06:55:57;4.47;;;1.60;;
76903;SDS011;65865;51.698;-0.292;2023-06-14T06:58:23;4.57;;;1.92;;
76903;SDS011;65865;51.698;-0.292;2023-06-14T07:00:49;3.75;;;1.27;;
76903;SDS011;65865;51.698;-0.292;2023-06-14T07:03:15;4.30;;;1.35;;
76903;SDS011;65865;51.698;-0.292;2023-06-14T07:05:42;5.18;;;1.55;;
76903;SDS011;65865;51.698;-0.292;2023-06-14T07:08:08;5.00;;;1.40;;
76903;SDS011;65865;51.698;-0.292;2023-06-14T07:10:34;4.72;;;1.50;;
76903;SDS011;65865;51.698;-0.292;2023-06-14T07:13:02;4.57;;;1.42;;
76903;SDS011;65865;51.698;-0.292;2023-06-14T07:15:28;4.13;;;1.90;;
76903;SDS011;65865;51.698;-0.292;2023-06-14T07:17:54;5.03;;;1.50;;
76903;SDS011;65865;51.698;-0.292;2023-06-14T07:20:24;4.28;;;1.55;;
76903;SDS011;65865;51.698;-0.292;2023-06-14T07:22:50;4.45;;;1.23;;
76903;SDS011;65865;51.698;-0.292;2023-06-14T07:25:16;5.35;;;1.60;;
76903;SDS011;65865;51.698;-0.292;2023-06-14T07:27:45;5.13;;;1.73;;
76903;SDS011;65865;51.698;-0.292;2023-06-14T07:30:11;4.20;;;1.30;;
76903;SDS011;65865;51.698;-0.292;2023-06-14T07:32:38;3.08;;;1.48;;
76903;SDS011;65865;51.698;-0.292;2023-06-14T07:35:04;5.40;;;1.67;;
76903;SDS011;65865;51.698;-0.292;2023-06-14T07:37:30;3.38;;;1.60;;
76903;SDS011;65865;51.698;-0.292;2023-06-14T07:39:56;4.22;;;1.50;;
76903;SDS011;65865;51.698;-0.292;2023-06-14T07:42:22;5.90;;;1.67;;
76903;SDS011;65865;51.698;-0.292;2023-06-14T07:44:48;5.55;;;1.40;;
76903;SDS011;65865;51.698;-0.292;2023-06-14T07:47:15;4.57;;;1.38;;
76903;SDS011;65865;51.698;-0.292;2023-06-14T07:49:41;3.97;;;1.35;;
76903;SDS011;65865;51.698;-0.292;2023-06-14T07:52:07;5.28;;;1.40;;
76903;SDS011;65865;51.698;-0.292;2023-06-14T07:54:34;4.45;;;1.48;;
76903;SDS011;65865;51.698;-0.292;2023-06-14T07:57:01;4.10;;;1.45;;
76903;SDS011;65865;51.698;-0.292;2023-06-14T07:59:27;3.63;;;1.60;;
76903;SDS011;65865;51.698;-0.292;2023-06-14T08:01:53;5.85;;;1.60;;
76903;SDS011;65865;51.698;-0.292;2023-06-14T08:04:19;5.63;;;1.83;;
76903;SDS011;65865;51.698;-0.292;2023-06-14T08:06:45;4.13;;;1.67;;
76903;SDS011;65865;51.698;-0.292;2023-06-14T08:09:13;4.07;;;1.35;;
76903;SDS011;65865;51.698;-0.292;2023-06-14T08:11:38;4.93;;;1.88;;
76903;SDS011;65865;51.698;-0.292;2023-06-14T08:14:05;4.80;;;1.70;;
76903;SDS011;65865;51.698;-0.292;2023-06-14T08:16:31;6.70;;;2.03;;
76903;SDS011;65865;51.698;-0.292;2023-06-14T08:18:57;5.15;;;1.90;;
76903;SDS011;65865;51.698;-0.292;2023-06-14T08:21:23;5.57;;;1.65;;
76903;SDS011;65865;51.698;-0.292;2023-06-14T08:23:49;6.35;;;1.70;;
76903;SDS011;65865;51.698;-0.292;2023-06-14T08:26:17;4.18;;;1.80;;
76903;SDS011;65865;51.698;-0.292;2023-06-14T08:28:44;4.07;;;1.83;;
76903;SDS011;65865;51.698;-0.292;2023-06-14T08:31:10;5.35;;;1.70;;
76903;SDS011;65865;51.698;-0.292;2023-06-14T08:33:36;5.68;;;1.55;;
76903;SDS011;65865;51.698;-0.292;2023-06-14T08:36:02;5.65;;;2.13;;
76903;SDS011;65865;51.698;-0.292;2023-06-14T08:38:28;4.65;;;1.70;;
76903;SDS011;65865;51.698;-0.292;2023-06-14T08:40:56;5.22;;;1.67;;
76903;SDS011;65865;51.698;-0.292;2023-06-14T08:43:23;3.95;;;1.52;;
76903;SDS011;65865;51.698;-0.292;2023-06-14T08:45:49;6.10;;;1.60;;
76903;SDS011;65865;51.698;-0.292;2023-06-14T08:48:18;5.57;;;1.63;;
76903;SDS011;65865;51.698;-0.292;2023-06-14T08:50:46;5.88;;;1.98;;
76903;SDS011;65865;51.698;-0.292;2023-06-14T08:53:13;7.72;;;1.88;;
76903;SDS011;65865;51.698;-0.292;2023-06-14T08:55:44;6.18;;;2.15;;
76903;SDS011;65865;51.698;-0.292;2023-06-14T08:58:14;4.22;;;1.58;;
76903;SDS011;65865;51.698;-0.292;2023-06-14T09:00:40;4.47;;;1.60;;
76903;SDS011;65865;51.698;-0.292;2023-06-14T09:03:08;4.90;;;1.70;;
76903;SDS011;65865;51.698;-0.292;2023-06-14T09:05:38;5.85;;;1.83;;
76903;SDS011;65865;51.698;-0.292;2023-06-14T09:08:04;5.10;;;2.08;;
76903;SDS011;65865;51.698;-0.292;2023-06-14T09:10:33;5.82;;;2.13;;
76903;SDS011;65865;51.698;-0.292;2023-06-14T09:13:02;5.75;;;1.83;;
76903;SDS011;65865;51.698;-0.292;2023-06-14T09:15:29;5.03;;;1.90;;
76903;SDS011;65865;51.698;-0.292;2023-06-14T09:17:56;5.95;;;1.52;;
76903;SDS011;65865;51.698;-0.292;2023-06-14T09:20:23;7.07;;;2.00;;
76903;SDS011;65865;51.698;-0.292;2023-06-14T09:22:49;4.60;;;1.90;;
76903;SDS011;65865;51.698;-0.292;2023-06-14T09:25:16;4.70;;;1.65;;
76903;SDS011;65865;51.698;-0.292;2023-06-14T09:27:43;9.20;;;1.55;;
76903;SDS011;65865;51.698;-0.292;2023-06-14T09:30:09;4.25;;;1.63;;
76903;SDS011;65865;51.698;-0.292;2023-06-14T09:32:39;3.72;;;1.52;;
76903;SDS011;65865;51.698;-0.292;2023-06-14T09:35:06;4.25;;;1.60;;
76903;SDS011;65865;51.698;-0.292;2023-06-14T09:37:32;3.53;;;1.17;;
76903;SDS011;65865;51.698;-0.292;2023-06-14T09:39:58;6.88;;;1.60;;
76903;SDS011;65865;51.698;-0.292;2023-06-14T09:42:25;3.05;;;1.38;;
76903;SDS011;65865;51.698;-0.292;2023-06-14T09:44:52;3.67;;;1.48;;
76903;SDS011;65865;51.698;-0.292;2023-06-14T09:47:19;4.15;;;1.40;;
76903;SDS011;65865;51.698;-0.292;2023-06-14T09:49:46;3.53;;;1.40;;
76903;SDS011;65865;51.698;-0.292;2023-06-14T09:52:19;3.67;;;1.30;;
76903;SDS011;65865;51.698;-0.292;2023-06-14T09:54:46;3.22;;;1.35;;
76903;SDS011;65865;51.698;-0.292;2023-06-14T09:57:16;4.28;;;1.55;;
76903;SDS011;65865;51.698;-0.292;2023-06-14T09:59:42;3.80;;;1.45;;
76903;SDS011;65865;51.698;-0.292;2023-06-14T10:02:11;3.55;;;1.27;;
76903;SDS011;65865;51.698;-0.292;2023-06-14T10:04:39;4.15;;;1.42;;
76903;SDS011;65865;51.698;-0.292;2023-06-14T10:07:06;4.00;;;1.70;;
76903;SDS011;65865;51.698;-0.292;2023-06-14T10:09:33;4.32;;;1.45;;
76903;SDS011;65865;51.698;-0.292;2023-06-14T10:12:00;2.38;;;1.20;;
76903;SDS011;65865;51.698;-0.292;2023-06-14T10:14:26;4.28;;;1.40;;
76903;SDS011;65865;51.698;-0.292;2023-06-14T10:17:07;3.17;;;1.35;;
76903;SDS011;65865;51.698;-0.292;2023-06-14T10:19:41;3.28;;;1.33;;
76903;SDS011;65865;51.698;-0.292;2023-06-14T10:22:11;3.28;;;1.33;;
76903;SDS011;65865;51.698;-0.292;2023-06-14T10:24:40;3.25;;;1.35;;
76903;SDS011;65865;51.698;-0.292;2023-06-14T10:32:26;4.05;;;1.95;;
76903;SDS011;65865;51.698;-0.292;2023-06-14T10:35:15;3.53;;;1.45;;
76903;SDS011;65865;51.698;-0.292;2023-06-14T10:37:40;4.28;;;1.60;;
76903;SDS011;65865;51.698;-0.292;2023-06-14T10:40:06;4.18;;;1.42;;
76903;SDS011;65865;51.698;-0.292;2023-06-14T10:45:00;5.38;;;1.70;;
76903;SDS011;65865;51.698;-0.292;2023-06-14T10:47:35;3.38;;;1.73;;
76903;SDS011;65865;51.698;-0.292;2023-06-14T10:50:05;4.38;;;1.85;;
76903;SDS011;65865;51.698;-0.292;2023-06-14T10:52:39;4.45;;;1.60;;
76903;SDS011;65865;51.698;-0.292;2023-06-14T10:55:07;4.43;;;1.63;;
76903;SDS011;65865;51.698;-0.292;2023-06-14T10:57:38;3.38;;;1.52;;
76903;SDS011;65865;51.698;-0.292;2023-06-14T11:00:05;3.88;;;2.05;;
76903;SDS011;65865;51.698;-0.292;2023-06-14T11:05:16;3.22;;;1.63;;
76903;SDS011;65865;51.698;-0.292;2023-06-14T11:10:43;4.97;;;1.98;;
76903;SDS011;65865;51.698;-0.292;2023-06-14T11:13:10;5.85;;;2.08;;
76903;SDS011;65865;51.698;-0.292;2023-06-14T11:15:37;4.25;;;1.88;;
76903;SDS011;65865;51.698;-0.292;2023-06-14T11:18:06;3.50;;;1.40;;
76903;SDS011;65865;51.698;-0.292;2023-06-14T11:20:34;5.75;;;1.63;;
76903;SDS011;65865;51.698;-0.292;2023-06-14T11:23:01;4.90;;;1.48;;
76903;SDS011;65865;51.698;-0.292;2023-06-14T11:25:29;4.47;;;1.67;;
76903;SDS011;65865;51.698;-0.292;2023-06-14T11:27:55;3.63;;;1.65;;
76903;SDS011;65865;51.698;-0.292;2023-06-14T11:30:22;3.22;;;1.50;;
76903;SDS011;65865;51.698;-0.292;2023-06-14T11:32:48;3.28;;;1.38;;
76903;SDS011;65865;51.698;-0.292;2023-06-14T11:35:18;3.40;;;1.35;;
76903;SDS011;65865;51.698;-0.292;2023-06-14T11:37:44;3.17;;;1.30;;
76903;SDS011;65865;51.698;-0.292;2023-06-14T11:40:11;3.65;;;1.40;;
76903;SDS011;65865;51.698;-0.292;2023-06-14T11:42:40;3.92;;;1.60;;
76903;SDS011;65865;51.698;-0.292;2023-06-14T11:45:07;4.07;;;1.40;;
76903;SDS011;65865;51.698;-0.292;2023-06-14T11:47:34;3.70;;;1.83;;
76903;SDS011;65865;51.698;-0.292;2023-06-14T11:50:04;3.28;;;1.40;;
76903;SDS011;65865;51.698;-0.292;2023-06-14T11:52:30;4.00;;;1.35;;
76903;SDS011;65865;51.698;-0.292;2023-06-14T11:54:57;4.97;;;2.53;;
76903;SDS011;65865;51.698;-0.292;2023-06-14T11:57:23;4.93;;;2.40;;
76903;SDS011;65865;51.698;-0.292;2023-06-14T11:59:50;4.40;;;1.98;;
76903;SDS011;65865;51.698;-0.292;2023-06-14T12:02:16;4.78;;;1.85;;
76903;SDS011;65865;51.698;-0.292;2023-06-14T12:04:43;4.07;;;1.65;;
76903;SDS011;65865;51.698;-0.292;2023-06-14T12:07:10;4.45;;;1.52;;
76903;SDS011;65865;51.698;-0.292;2023-06-14T12:09:39;3.88;;;2.10;;
76903;SDS011;65865;51.698;-0.292;2023-06-14T12:12:05;5.40;;;2.25;;
76903;SDS011;65865;51.698;-0.292;2023-06-14T12:14:31;4.80;;;1.90;;
76903;SDS011;65865;51.698;-0.292;2023-06-14T12:17:04;3.22;;;1.65;;
76903;SDS011;65865;51.698;-0.292;2023-06-14T12:21:59;3.53;;;1.77;;
76903;SDS011;65865;51.698;-0.292;2023-06-14T12:24:30;5.22;;;1.70;;
76903;SDS011;65865;51.698;-0.292;2023-06-14T12:26:59;4.43;;;1.80;;
76903;SDS011;65865;51.698;-0.292;2023-06-14T12:29:25;4.30;;;1.95;;
76903;SDS011;65865;51.698;-0.292;2023-06-14T12:31:51;4.65;;;2.75;;
76903;SDS011;65865;51.698;-0.292;2023-06-14T12:34:19;4.25;;;2.28;;
76903;SDS011;65865;51.698;-0.292;2023-06-14T12:36:45;5.28;;;2.58;;
76903;SDS011;65865;51.698;-0.292;2023-06-14T12:39:12;4.25;;;2.20;;
76903;SDS011;65865;51.698;-0.292;2023-06-14T12:41:38;4.07;;;2.20;;
76903;SDS011;65865;51.698;-0.292;2023-06-14T12:44:06;4.80;;;2.50;;
76903;SDS011;65865;51.698;-0.292;2023-06-14T12:46:33;5.13;;;2.22;;
76903;SDS011;65865;51.698;-0.292;2023-06-14T12:48:59;4.13;;;2.30;;
76903;SDS011;65865;51.698;-0.292;2023-06-14T12:51:26;4.90;;;2.10;;
76903;SDS011;65865;51.698;-0.292;2023-06-14T12:53:52;4.47;;;2.28;;
76903;SDS011;65865;51.698;-0.292;2023-06-14T12:56:18;3.90;;;2.15;;
76903;SDS011;65865;51.698;-0.292;2023-06-14T12:58:44;3.72;;;2.35;;
76903;SDS011;65865;51.698;-0.292;2023-06-14T13:01:10;4.68;;;2.38;;
76903;SDS011;65865;51.698;-0.292;2023-06-14T13:03:36;4.10;;;2.08;;
76903;SDS011;65865;51.698;-0.292;2023-06-14T13:06:02;4.68;;;3.17;;
76903;SDS011;65865;51.698;-0.292;2023-06-14T13:08:29;4.25;;;2.28;;
76903;SDS011;65865;51.698;-0.292;2023-06-14T13:10:56;3.53;;;2.00;;
76903;SDS011;65865;51.698;-0.292;2023-06-14T13:13:22;4.00;;;2.10;;
76903;SDS011;65865;51.698;-0.292;2023-06-14T13:15:49;4.50;;;2.10;;
76903;SDS011;65865;51.698;-0.292;2023-06-14T13:18:16;4.35;;;2.17;;
76903;SDS011;65865;51.698;-0.292;2023-06-14T13:20:42;3.53;;;1.75;;
76903;SDS011;65865;51.698;-0.292;2023-06-14T13:23:08;4.50;;;2.00;;
76903;SDS011;65865;51.698;-0.292;2023-06-14T13:25:36;3.70;;;1.77;;
76903;SDS011;65865;51.698;-0.292;2023-06-14T13:28:03;3.58;;;2.08;;
76903;SDS011;65865;51.698;-0.292;2023-06-14T13:30:29;2.88;;;1.67;;
76903;SDS011;65865;51.698;-0.292;2023-06-14T13:32:55;4.18;;;1.45;;
76903;SDS011;65865;51.698;-0.292;2023-06-14T13:35:22;3.50;;;1.77;;
76903;SDS011;65865;51.698;-0.292;2023-06-14T13:37:48;3.10;;;1.55;;
76903;SDS011;65865;51.698;-0.292;2023-06-14T13:40:14;2.95;;;1.75;;
76903;SDS011;65865;51.698;-0.292;2023-06-14T13:42:41;3.60;;;1.60;;
76903;SDS011;65865;51.698;-0.292;2023-06-14T13:45:08;2.85;;;1.58;;
76903;SDS011;65865;51.698;-0.292;2023-06-14T13:47:34;3.03;;;1.63;;
76903;SDS011;65865;51.698;-0.292;2023-06-14T13:50:00;2.47;;;1.40;;
76903;SDS011;65865;51.698;-0.292;2023-06-14T13:52:27;3.15;;;1.55;;
76903;SDS011;65865;51.698;-0.292;2023-06-14T13:54:53;4.05;;;1.50;;
76903;SDS011;65865;51.698;-0.292;2023-06-14T13:57:19;3.03;;;1.90;;
76903;SDS011;65865;51.698;-0.292;2023-06-14T13:59:45;4.32;;;1.65;;
76903;SDS011;65865;51.698;-0.292;2023-06-14T14:02:11;3.08;;;1.75;;
76903;SDS011;65865;51.698;-0.292;2023-06-14T14:04:38;3.40;;;1.80;;
76903;SDS011;65865;51.698;-0.292;2023-06-14T14:07:05;3.20;;;1.63;;
76903;SDS011;65865;51.698;-0.292;2023-06-14T14:09:34;3.60;;;2.25;;
76903;SDS011;65865;51.698;-0.292;2023-06-14T14:12:01;3.47;;;1.70;;
76903;SDS011;65865;51.698;-0.292;2023-06-14T14:14:28;3.22;;;1.67;;
76903;SDS011;65865;51.698;-0.292;2023-06-14T14:16:53;2.72;;;1.52;;
76903;SDS011;65865;51.698;-0.292;2023-06-14T14:19:23;5.00;;;2.05;;
76903;SDS011;65865;51.698;-0.292;2023-06-14T14:21:50;3.90;;;2.15;;
76903;SDS011;65865;51.698;-0.292;2023-06-14T14:24:16;3.20;;;1.52;;
76903;SDS011;65865;51.698;-0.292;2023-06-14T14:26:42;3.85;;;1.83;;
76903;SDS011;65865;51.698;-0.292;2023-06-14T14:29:08;2.90;;;1.45;;
76903;SDS011;65865;51.698;-0.292;2023-06-14T14:31:36;3.03;;;1.42;;
76903;SDS011;65865;51.698;-0.292;2023-06-14T14:34:02;3.58;;;1.58;;
76903;SDS011;65865;51.698;-0.292;2023-06-14T14:36:28;2.65;;;1.52;;
76903;SDS011;65865;51.698;-0.292;2023-06-14T14:38:54;3.38;;;1.58;;
76903;SDS011;65865;51.698;-0.292;2023-06-14T14:41:20;2.55;;;1.40;;
76903;SDS011;65865;51.698;-0.292;2023-06-14T14:43:46;3.38;;;1.63;;
76903;SDS011;65865;51.698;-0.292;2023-06-14T14:46:12;4.00;;;2.00;;
76903;SDS011;65865;51.698;-0.292;2023-06-14T14:48:38;5.03;;;1.92;;
76903;SDS011;65865;51.698;-0.292;2023-06-14T14:51:05;4.28;;;1.85;;